Latest Weather Observations for Halls Creek

IDW60801

Issued at 12:05 pm WST Sunday 26 October 2014 (issued every 30 minutes, with the page automatically refreshed every 10 minutes)

About weather observations | Map of weather stations | Latest weather observations for WA | Other Formats
Station Details ID: 002012 Name: HALLS CREEK AIRPORT Lat: -18.23 Lon: 127.66 Height: 422.0 m
Data from the previous 72 hours. | See also: Recent months at Halls Creek
Date/Time
WST
Temp
°C
App
Temp
°C
Dew
Point
Rel
Hum
%
Delta-T
°C
Wind Press
QNH
hPa
Press
MSL
hPa
Rain
since 9 am
mm
Dir
 
Spd
km/h
Gust
km/h
Spd
kts
Gust
kts
26/12:00pm 38.3 34.8 3.7 12 18.8 E 11 28 6 15 1012.8 - 0.0
26/11:30am 36.6 34.2 4.2 13 17.6 NNE 6 22 3 12 1013.4 - 0.0
26/11:00am 35.9 32.4 5.4 15 16.8 E 13 33 7 18 1013.9 - 0.0
26/10:30am 36.9 32.5 4.8 13 17.6 ESE 17 30 9 16 1014.3 - 0.0
26/10:00am 36.8 35.0 9.4 19 16.1 ENE 9 20 5 11 1014.9 - 0.0
26/09:30am 35.8 34.6 10.3 21 15.1 NE 7 20 4 11 1015.4 - 0.0
26/09:00am 34.3 34.0 12.7 27 13.2 WSW 6 11 3 6 1015.7 1012.5 0.0
26/08:30am 33.6 34.1 14.1 30 12.1 SE 4 11 2 6 1015.8 - 0.0
26/08:00am 32.2 34.0 17.4 41 9.6 WNW 4 11 2 6 1015.8 - 0.0
26/07:30am 30.9 32.9 17.8 45 8.5 W 4 11 2 6 1015.8 - 0.0
26/07:00am 29.3 31.4 18.0 50 7.3 W 4 9 2 5 1015.5 - 0.0
26/06:30am 27.1 29.4 16.8 53 6.5 CALM 0 2 0 1 1015.6 - 0.0
26/06:00am 25.6 27.8 16.5 57 5.7 CALM 0 2 0 1 1015.3 1012.1 0.0
26/05:30am 23.5 23.8 13.3 52 6.0 SW 4 6 2 3 1014.9 - 0.0
26/05:00am 22.6 22.3 11.6 49 6.3 W 4 7 2 4 1014.6 - 0.0
26/04:30am 23.5 23.7 11.7 47 6.8 ESE 2 2 1 1 1014.3 - 0.0
26/04:00am 23.1 23.9 12.4 51 6.2 CALM 0 2 0 1 1014.2 - 0.0
26/03:30am 22.5 22.4 10.8 47 6.6 SE 2 4 1 2 1014.0 - 0.0
26/03:00am 24.2 24.4 11.9 46 7.1 N 2 4 1 2 1013.6 1010.4 0.0
26/02:30am 25.4 25.1 11.6 42 8.0 NNW 4 7 2 4 1013.6 - 0.0
26/02:00am 25.5 25.0 10.8 39 8.4 NW 4 4 2 2 1013.5 - 0.0
26/01:30am 25.1 25.7 11.8 43 7.7 CALM 0 2 0 1 1013.6 - 0.0
26/01:00am 25.2 25.2 9.7 37 8.7 CALM 0 0 0 0 1013.9 - 0.0
26/12:30am 25.6 25.7 11.6 41 8.1 SE 2 4 1 2 1014.2 - 0.0
26/12:00am 26.9 26.6 10.0 34 9.6 NE 2 4 1 2 1014.4 1011.3 0.0
 
Date/Time
WST
Temp
°C
App
Temp
°C
Dew
Point
Rel
Hum
%
Delta-T
°C
Wind Press
QNH
hPa
Press
MSL
hPa
Rain
since 9 am
mm
Dir
 
Spd
km/h
Gust
km/h
Spd
kts
Gust
kts
25/11:30pm 27.5 27.3 10.6 34 9.7 ENE 2 6 1 3 1014.7 - 0.0
25/11:00pm 28.5 27.1 7.3 26 11.6 NE 4 6 2 3 1014.8 - 0.0
25/10:30pm 28.5 27.1 7.3 26 11.6 ENE 4 6 2 3 1015.1 - 0.0
25/10:00pm 29.1 27.0 5.7 22 12.5 ENE 6 7 3 4 1015.3 - 0.0
25/09:30pm 30.5 27.6 2.8 17 14.2 ENE 7 13 4 7 1015.3 - 0.0
25/09:00pm 28.7 27.3 5.6 23 12.3 ENE 2 6 1 3 1015.1 1011.9 0.0
25/08:30pm 29.3 27.7 4.5 20 13.0 E 2 2 1 1 1014.7 - 0.0
25/08:00pm 29.9 28.1 3.7 19 13.6 SSE 2 4 1 2 1014.6 - 0.0
25/07:30pm 31.8 29.0 2.0 15 15.2 ENE 6 9 3 5 1014.5 - 0.0
25/07:00pm 32.4 29.8 1.0 13 15.8 E 4 7 2 4 1014.2 - 0.0
25/06:30pm 32.9 29.7 -0.2 12 16.4 E 6 11 3 6 1013.8 - 0.0
25/06:00pm 34.1 30.8 -1.5 10 17.4 E 6 11 3 6 1013.3 1010.1 0.0
25/05:30pm 34.8 31.4 -1.9 9 17.9 E 6 13 3 7 1013.0 - 0.0
25/05:00pm 36.2 32.0 -4.3 7 19.2 E 9 19 5 10 1012.6 - 0.0
25/04:30pm 36.8 32.2 -3.9 7 19.5 ESE 11 20 6 11 1012.3 - 0.0
25/04:00pm 37.7 31.9 -4.8 6 20.2 SE 17 32 9 17 1012.0 - 0.0
25/03:30pm 37.7 32.7 -4.2 7 20.1 ENE 13 32 7 17 1011.8 - 0.0
25/03:00pm 38.1 34.8 -1.2 8 19.8 W 6 20 3 11 1011.8 1008.6 0.0
25/02:30pm 38.4 34.5 -1.3 8 20.0 E 9 24 5 13 1012.1 - 0.0
25/02:00pm 36.9 32.1 0.5 10 18.7 ENE 15 30 8 16 1012.4 - 0.0
25/01:30pm 38.1 34.8 -0.2 9 19.6 SSE 7 20 4 11 1012.8 - 0.0
25/01:00pm 38.0 33.6 0.4 9 19.4 E 13 32 7 17 1013.3 - 0.0
25/12:30pm 37.5 32.1 -1.6 8 19.5 E 17 39 9 21 1013.9 - 0.0
25/12:00pm 37.7 33.1 -1.0 8 19.5 ESE 13 26 7 14 1014.2 1011.1 0.0
25/11:30am 37.7 33.9 -1.0 8 19.5 E 9 26 5 14 1014.5 - 0.0
25/11:00am 37.8 32.5 -0.7 9 19.5 SE 17 28 9 15 1015.1 - 0.0
25/10:30am 35.8 33.3 4.8 14 16.9 NNE 7 20 4 11 1015.4 - 0.0
25/10:00am 35.9 33.7 6.4 16 16.5 ENE 7 19 4 10 1015.9 - 0.0
25/09:30am 35.5 33.9 7.8 18 15.8 NNW 6 13 3 7 1016.3 - 0.0
25/09:00am 34.8 32.7 8.2 19 15.2 NE 9 24 5 13 1016.7 1013.6 0.0
25/08:30am 33.3 32.5 11.0 25 13.2 N 6 15 3 8 1017.0 - 0.0
25/08:00am 32.1 32.9 14.8 35 10.8 NW 4 7 2 4 1017.3 - 0.0
25/07:30am 30.6 31.0 14.8 38 9.8 NW 6 11 3 6 1017.4 - 0.0
25/07:00am 29.1 29.3 14.2 40 9.1 NE 6 9 3 5 1017.3 - 0.0
25/06:30am 27.1 26.2 7.9 29 10.5 NE 2 6 1 3 1017.0 - 0.0
25/06:00am 25.4 23.7 6.0 28 10.2 NNE 4 6 2 3 1016.7 1013.6 0.0
25/05:30am 24.8 23.7 6.7 31 9.6 NNE 2 4 1 2 1016.3 - 0.0
25/05:00am 23.8 23.4 8.1 36 8.5 CALM 0 0 0 0 1015.9 - 0.0
25/04:30am 23.5 22.6 7.9 36 8.4 E 2 4 1 2 1015.6 - 0.0
25/04:00am 23.9 23.2 8.5 37 8.4 ENE 2 4 1 2 1015.1 - 0.0
25/03:30am 24.9 23.7 6.3 30 9.8 NNE 2 4 1 2 1014.6 - 0.0
25/03:00am 25.0 23.7 7.8 33 9.3 ENE 4 6 2 3 1014.4 1011.3 0.0
25/02:30am 24.7 23.5 6.5 31 9.6 E 2 4 1 2 1014.2 - 0.0
25/02:00am 24.7 23.5 6.3 30 9.7 SSE 2 2 1 1 1013.8 - 0.0
25/01:30am 25.1 24.2 7.7 33 9.4 ESE 2 2 1 1 1013.7 - 0.0
25/01:00am 26.8 25.4 7.2 28 10.6 NNE 4 4 2 2 1013.8 - 0.0
25/12:30am 27.6 25.8 5.4 24 11.7 NNE 4 6 2 3 1014.1 - 0.0
25/12:00am 28.1 26.2 4.7 22 12.2 NNE 4 4 2 2 1014.3 1011.2 0.0
 
Date/Time
WST
Temp
°C
App
Temp
°C
Dew
Point
Rel
Hum
%
Delta-T
°C
Wind Press
QNH
hPa
Press
MSL
hPa
Rain
since 9 am
mm
Dir
 
Spd
km/h
Gust
km/h
Spd
kts
Gust
kts
24/11:30pm 27.2 25.8 7.3 28 10.8 ESE 4 6 2 3 1014.5 - 0.0
24/11:00pm 28.1 27.0 6.9 26 11.5 SE 2 4 1 2 1014.4 - 0.0
24/10:30pm 29.0 27.0 4.2 20 12.9 E 4 7 2 4 1014.5 - 0.0
24/10:00pm 29.9 27.3 3.0 18 13.8 ENE 6 11 3 6 1014.5 - 0.0
24/09:30pm 29.9 27.1 1.8 16 14.1 ENE 6 9 3 5 1014.4 - 0.0
24/09:00pm 29.8 27.1 2.4 17 13.9 ENE 6 9 3 5 1014.1 1011.0 0.0
24/08:30pm 28.4 26.6 5.6 23 12.1 SE 4 6 2 3 1013.9 - 0.0
24/08:00pm 29.3 28.3 7.5 25 12.0 ENE 2 4 1 2 1013.5 - 0.0
24/07:30pm 29.6 28.9 6.9 24 12.4 CALM 0 2 0 1 1013.3 - 0.0
24/07:00pm 31.3 30.3 7.4 22 13.3 N 2 4 1 2 1012.9 - 0.0
24/06:30pm 32.3 31.0 5.9 19 14.4 ENE 2 6 1 3 1012.4 - 0.0
24/06:00pm 34.0 31.9 4.1 15 16.0 NE 4 7 2 4 1012.0 1008.9 0.0
24/05:30pm 34.9 32.4 1.6 12 17.2 NE 4 11 2 6 1011.8 - 0.0
24/05:00pm 35.8 33.7 3.8 13 17.2 E 4 7 2 4 1011.5 - 0.0
24/04:30pm 36.7 33.0 -0.1 10 18.7 ENE 9 15 5 8 1011.4 - 0.0
24/04:00pm 37.0 34.0 2.1 11 18.4 ENE 7 17 4 9 1011.3 - 0.0
24/03:30pm 37.4 34.0 1.9 11 18.7 NE 9 17 5 9 1011.4 - 0.0
24/03:00pm 38.1 35.8 2.9 11 18.9 ESE 4 15 2 8 1011.5 1008.3 0.0
24/02:30pm 37.5 35.0 3.7 12 18.3 ENE 6 11 3 6 1011.7 - 0.0
24/02:00pm 36.3 33.6 3.9 13 17.5 E 7 19 4 10 1011.8 - 0.0
24/01:30pm 37.5 34.3 3.3 12 18.4 ESE 9 22 5 12 1012.0 - 0.0
24/01:00pm 36.6 33.5 3.4 12 17.8 E 9 22 5 12 1012.4 - 0.0
24/12:30pm 35.8 32.4 3.8 13 17.2 ENE 11 20 6 11 1012.9 - 0.0
24/12:00pm 37.3 34.0 4.7 13 17.9 ENE 11 26 6 14 1013.3 1010.1 0.0
24/11:30am 36.4 33.8 6.1 15 16.9 ENE 9 20 5 11 1013.7 - 0.0
24/11:00am 36.2 34.0 6.0 15 16.8 E 7 20 4 11 1014.2 - 0.0
24/10:30am 37.4 34.8 5.9 14 17.6 E 9 19 5 10 1014.6 - 0.0
24/10:00am 35.4 33.2 6.0 16 16.3 NE 7 22 4 12 1015.1 - 0.0
24/09:30am 34.8 33.3 8.5 20 15.1 NNE 6 15 3 8 1015.4 - 0.0
24/09:00am 34.0 33.3 11.4 25 13.5 W 6 13 3 7 1015.7 1012.5 0.0
24/08:30am 33.3 32.9 12.3 28 12.7 SW 6 13 3 7 1015.8 - 0.0
24/08:00am 32.5 32.1 12.5 29 12.1 WSW 6 13 3 7 1015.9 - 0.0
24/07:30am 30.9 30.6 12.6 32 11.0 WSW 6 11 3 6 1015.8 - 0.0
24/07:00am 29.4 30.1 13.4 37 9.7 E 2 4 1 2 1015.8 - 0.0
24/06:30am 28.1 28.5 12.6 38 9.2 ESE 2 4 1 2 1015.5 - 0.0
24/06:00am 26.1 26.5 12.5 42 8.0 E 2 2 1 1 1015.2 1012.0 0.0
24/05:30am 23.8 23.9 11.6 46 7.0 SE 2 4 1 2 1014.9 - 0.0
24/05:00am 23.4 23.5 11.5 47 6.8 E 2 4 1 2 1014.7 - 0.0
24/04:30am 24.0 24.8 12.7 49 6.6 CALM 0 4 0 2 1014.3 - 0.0
24/04:00am 24.4 24.6 12.0 46 7.2 N 2 4 1 2 1014.1 - 0.0
24/03:30am 25.2 25.0 10.4 39 8.4 NNW 2 4 1 2 1013.8 - 0.0
24/03:00am 25.1 24.8 10.0 38 8.5 NW 2 4 1 2 1013.5 1010.3 0.0
24/02:30am 25.4 25.4 9.7 37 8.8 CALM 0 2 0 1 1013.5 - 0.0
24/02:00am 26.0 26.1 10.1 36 9.0 CALM 0 2 0 1 1013.5 - 0.0
24/01:30am 27.5 26.5 8.9 31 10.4 N 4 6 2 3 1013.5 - 0.0
24/01:00am 27.0 26.4 9.1 32 10.0 E 2 2 1 1 1013.7 - 0.0
24/12:30am 27.6 26.3 7.7 28 10.9 NNE 4 4 2 2 1013.8 - 0.0
24/12:00am 28.0 27.1 7.6 27 11.2 E 2 4 1 2 1013.8 1010.6 0.0
 
Date/Time
WST
Temp
°C
App
Temp
°C
Dew
Point
Rel
Hum
%
Delta-T
°C
Wind Press
QNH
hPa
Press
MSL
hPa
Rain
since 9 am
mm
Dir
 
Spd
km/h
Gust
km/h
Spd
kts
Gust
kts
23/11:30pm 28.8 27.5 7.8 26 11.6 ESE 4 9 2 5 1013.9 - 0.0
23/11:00pm 29.6 28.0 6.3 23 12.6 E 4 7 2 4 1014.1 - 0.0
23/10:30pm 29.6 27.4 5.1 21 13.0 ENE 6 11 3 6 1014.1 - 0.0
23/10:00pm 29.5 27.5 4.5 20 13.1 E 4 7 2 4 1014.2 - 0.0
23/09:30pm 29.3 28.2 7.0 24 12.2 NE 2 4 1 2 1014.1 - 0.0
23/09:00pm 30.6 28.5 3.7 18 14.0 NNE 4 6 2 3 1014.0 1010.9 0.0
23/08:30pm 30.6 28.1 1.5 15 14.6 N 4 4 2 2 1013.9 - 0.0
23/08:00pm 30.7 29.5 6.5 22 13.2 E 2 4 1 2 1013.7 - 0.0
23/07:30pm 30.9 29.5 5.7 20 13.6 E 2 4 1 2 1013.3 - 0.0
23/07:00pm 31.5 30.2 6.2 20 13.8 E 2 4 1 2 1013.0 - 0.0
23/06:30pm 32.9 30.7 3.4 15 15.5 ENE 4 6 2 3 1012.6 - 0.0
23/06:00pm 33.6 31.2 2.0 13 16.3 ENE 4 7 2 4 1012.2 1009.1 0.0
23/05:30pm 34.9 32.3 1.2 12 17.3 ENE 4 7 2 4 1011.7 - 0.0
23/05:00pm 36.3 33.1 -0.8 9 18.6 ENE 6 13 3 7 1011.4 - 0.0
23/04:30pm 37.2 33.5 -3.0 8 19.6 E 7 17 4 9 1011.1 - 0.0
23/04:00pm 37.5 33.3 -4.3 7 20.0 E 9 22 5 12 1010.8 - 0.0
23/03:30pm 38.3 33.9 -5.6 6 20.7 SE 9 19 5 10 1010.7 - 0.0
23/03:00pm 37.7 34.3 -1.9 8 19.7 NNE 6 11 3 6 1010.9 1007.7 0.0
23/02:30pm 37.6 33.0 -4.5 7 20.1 E 11 20 6 11 1011.1 - 0.0
23/02:00pm 38.3 34.6 -3.2 7 20.3 NE 7 17 4 9 1011.2 - 0.0
23/01:30pm 38.9 36.1 -0.2 8 20.1 S 4 9 2 5 1011.4 - 0.0
23/01:00pm 37.9 33.6 -1.3 8 19.7 ENE 11 24 6 13 1011.8 - 0.0
23/12:30pm 37.7 32.3 -1.0 8 19.5 E 17 32 9 17 1012.3 - 0.0

Other Formats:

Comma delimited format used in spreadsheet applications
http://www.bom.gov.au/fwo/IDW60801/IDW60801.94212.axf

JavaScript Object Notation format (JSON) in row-major order
http://www.bom.gov.au/fwo/IDW60801/IDW60801.94212.json